Time;durP1;ratioP1;P1;durP2;ratioP2;P2;SDS_P1;SDS_P2;PMS_P1;PMS_P2;Temp;Humidity;BMP_temperature;BMP_pressure;BME280_temperature;BME280_humidity;BME280_pressure;Samples;Min_cycle;Max_cycle;Signal;HPM_P1;HPM_P2
2022/09/25 00:00:57;;;;;;;13.57;2.40;;;28.90;91.50;;;;;;5084235;28;20038;-53
2022/09/25 00:03:26;;;;;;;11.20;2.22;;;28.80;91.30;;;;;;5086480;28;20043;-53
2022/09/25 00:05:59;;;;;;;12.13;1.80;;;28.80;91.20;;;;;;5086748;28;20032;-58
2022/09/25 00:08:26;;;;;;;9.40;1.80;;;28.80;91.00;;;;;;5086385;28;20016;-53
2022/09/25 00:10:52;;;;;;;29.35;2.47;;;28.70;91.20;;;;;;5086655;28;20040;-53
2022/09/25 00:13:22;;;;;;;43.03;3.88;;;28.70;90.90;;;;;;5086229;28;20039;-53
2022/09/25 00:15:55;;;;;;;17.35;2.20;;;28.70;90.70;;;;;;5086727;28;20028;-54
2022/09/25 00:21:13;;;;;;;4.25;1.15;;;28.70;90.50;;;;;;5086170;28;20038;-56
2022/09/25 00:23:43;;;;;;;4.95;1.20;;;28.70;90.40;;;;;;5086180;28;20035;-55
2022/09/25 00:26:11;;;;;;;263.40;17.33;;;28.70;90.60;;;;;;5086079;28;20083;-54
2022/09/25 00:28:39;;;;;;;37.33;4.18;;;28.60;90.70;;;;;;5085940;28;20032;-54
2022/09/25 00:31:08;;;;;;;35.50;3.50;;;28.70;90.90;;;;;;5085367;28;20138;-55
2022/09/25 00:33:36;;;;;;;35.60;4.57;;;28.60;90.80;;;;;;5085731;28;20083;-54
2022/09/25 00:36:04;;;;;;;44.97;4.03;;;28.60;90.70;;;;;;5085843;28;20035;-54
2022/09/25 00:38:32;;;;;;;40.25;3.80;;;28.60;90.80;;;;;;5084472;28;20130;-64
2022/09/25 00:40:59;;;;;;;16.75;2.63;;;28.60;90.80;;;;;;5084547;28;20216;-56
2022/09/25 00:43:43;;;;;;;21.15;2.42;;;28.60;90.80;;;;;;5085659;28;20028;-53
2022/09/25 00:46:32;;;;;;;31.08;2.67;;;28.60;90.70;;;;;;5085518;28;20327;-53
2022/09/25 00:49:18;;;;;;;12.35;2.38;;;28.50;90.70;;;;;;5085515;28;20032;-54
2022/09/25 00:51:49;;;;;;;10.02;2.17;;;28.50;90.70;;;;;;5085732;28;20046;-55
2022/09/25 00:54:27;;;;;;;7.68;1.63;;;28.50;90.80;;;;;;5085530;28;20039;-53
2022/09/25 00:56:56;;;;;;;9.63;1.40;;;28.50;90.80;;;;;;5085522;28;20270;-59
2022/09/25 00:59:28;;;;;;;9.77;1.30;;;28.50;90.90;;;;;;5085405;28;20344;-57
2022/09/25 01:01:55;;;;;;;7.40;1.50;;;28.40;90.80;;;;;;5085578;28;20035;-54
2022/09/25 01:04:22;;;;;;;15.25;2.00;;;28.40;90.90;;;;;;5085679;28;20059;-56
2022/09/25 01:06:49;;;;;;;8.45;1.70;;;28.40;90.90;;;;;;5085090;28;20088;-54
2022/09/25 01:09:17;;;;;;;6.32;1.33;;;28.40;90.90;;;;;;5085564;28;20074;-60
2022/09/25 01:11:45;;;;;;;7.82;1.40;;;28.30;90.90;;;;;;5084888;28;20253;-53
2022/09/25 01:14:16;;;;;;;13.90;1.40;;;28.30;90.80;;;;;;5085044;28;20030;-54
2022/09/25 01:16:42;;;;;;;21.50;1.98;;;28.30;90.80;;;;;;5084948;28;20091;-55
2022/09/25 01:19:27;;;;;;;36.72;2.97;;;28.30;90.90;;;;;;5085005;28;20320;-58
2022/09/25 01:22:20;;;;;;;67.88;4.60;;;28.30;90.90;;;;;;5084783;28;20257;-55
2022/09/25 01:25:27;;;;;;;11.45;1.73;;;28.30;91.00;;;;;;5083729;28;20043;-57
2022/09/25 01:28:25;;;;;;;13.40;2.05;;;28.30;91.00;;;;;;5083851;28;20081;-57
2022/09/25 01:31:02;;;;;;;7.63;1.52;;;28.30;91.20;;;;;;5083408;28;20044;-52
2022/09/25 01:33:40;;;;;;;6.97;1.30;;;28.20;91.10;;;;;;5084559;28;20316;-55
2022/09/25 01:36:21;;;;;;;6.70;1.60;;;28.20;91.10;;;;;;5084570;28;20021;-55
2022/09/25 01:39:15;;;;;;;4.70;1.20;;;28.20;91.10;;;;;;5084824;28;20040;-56
2022/09/25 01:42:02;;;;;;;9.88;2.10;;;28.20;91.10;;;;;;5076634;28;20214;-55
2022/09/25 01:44:33;;;;;;;20.92;2.08;;;28.20;91.10;;;;;;5064667;28;20293;-60
2022/09/25 01:47:13;;;;;;;17.67;1.98;;;28.20;91.10;;;;;;5075201;28;20085;-56
2022/09/25 01:49:51;;;;;;;8.45;1.48;;;28.10;91.10;;;;;;5084539;28;20040;-56
2022/09/25 01:52:31;;;;;;;4.70;1.23;;;28.10;91.20;;;;;;5066445;28;20037;-59
2022/09/25 01:55:31;;;;;;;5.30;1.30;;;28.10;91.30;;;;;;5084675;28;20201;-53
2022/09/25 01:58:22;;;;;;;3.67;1.10;;;28.10;91.10;;;;;;5070398;28;20048;-58
2022/09/25 02:00:54;;;;;;;7.55;1.10;;;28.10;91.10;;;;;;5073612;28;20041;-54
2022/09/25 02:03:31;;;;;;;5.85;1.30;;;28.10;91.20;;;;;;5066913;28;20328;-54
2022/09/25 02:06:03;;;;;;;8.35;1.55;;;28.00;91.20;;;;;;5065156;28;20144;-57
2022/09/25 02:08:39;;;;;;;;;;;28.00;91.30;;;;;;5072921;28;20091;-55
2022/09/25 02:11:08;;;;;;;8.20;2.00;;;28.00;91.30;;;;;;5083952;28;19983;-54
2022/09/25 02:13:49;;;;;;;7.00;1.48;;;28.00;91.40;;;;;;5083977;28;20024;-64
2022/09/25 02:16:21;;;;;;;6.47;1.52;;;28.00;91.40;;;;;;5084087;28;20089;-61
2022/09/25 02:21:56;;;;;;;3.25;1.13;;;28.00;91.40;;;;;;5063789;28;20071;-48
2022/09/25 02:24:56;;;;;;;5.53;1.30;;;28.00;91.40;;;;;;5063386;28;20048;-54
2022/09/25 02:27:26;;;;;;;5.70;1.45;;;28.00;91.50;;;;;;5062826;28;20032;-53
2022/09/25 02:29:54;;;;;;;10.65;1.75;;;28.00;91.60;;;;;;5078714;28;20032;-55
2022/09/25 02:32:25;;;;;;;4.15;1.52;;;27.90;91.50;;;;;;5063846;28;20075;-54
2022/09/25 02:34:52;;;;;;;4.45;1.63;;;28.00;91.50;;;;;;5070811;28;20095;-53
2022/09/25 02:37:19;;;;;;;6.28;1.55;;;27.90;91.50;;;;;;5083704;28;20024;-53
2022/09/25 02:39:52;;;;;;;12.25;1.77;;;27.90;91.50;;;;;;5084260;28;20047;-55
2022/09/25 02:42:48;;;;;;;5.78;1.38;;;27.90;91.50;;;;;;5083704;28;20032;-56
2022/09/25 02:45:33;;;;;;;7.10;1.73;;;27.90;91.50;;;;;;5084024;28;20035;-54
2022/09/25 02:48:17;;;;;;;5.22;1.40;;;27.90;91.50;;;;;;5083641;28;20042;-55
2022/09/25 02:51:17;;;;;;;6.68;1.40;;;27.90;91.60;;;;;;5083502;28;20204;-55
2022/09/25 02:54:20;;;;;;;4.50;1.17;;;27.90;91.70;;;;;;5083673;28;20412;-54
2022/09/25 02:57:00;;;;;;;3.03;1.13;;;27.90;91.70;;;;;;5083650;28;20023;-52
2022/09/25 02:59:37;;;;;;;3.70;1.30;;;27.90;91.70;;;;;;5083676;28;20035;-52
2022/09/25 03:02:04;;;;;;;16.60;1.75;;;27.90;91.70;;;;;;5083705;28;20039;-56
2022/09/25 03:04:35;;;;;;;10.45;1.63;;;27.80;91.60;;;;;;5082396;28;20046;-56
2022/09/25 03:07:02;;;;;;;13.13;1.52;;;27.80;91.70;;;;;;5083567;28;20294;-53
2022/09/25 03:09:34;;;;;;;28.48;2.03;;;27.80;91.70;;;;;;5083732;28;20033;-55
2022/09/25 03:12:03;;;;;;;19.37;2.40;;;27.80;91.80;;;;;;5083322;28;20239;-54
2022/09/25 03:14:31;;;;;;;31.20;2.47;;;27.80;91.80;;;;;;5083799;28;20241;-53
2022/09/25 03:17:03;;;;;;;28.25;2.97;;;27.80;91.90;;;;;;5083504;28;20185;-57
2022/09/25 03:19:30;;;;;;;7.63;1.95;;;27.80;91.90;;;;;;5083450;28;20032;-53
2022/09/25 03:21:57;;;;;;;5.60;1.40;;;27.80;91.90;;;;;;5069820;28;20031;-59
2022/09/25 03:24:24;;;;;;;10.50;2.10;;;27.80;91.90;;;;;;5063276;28;20041;-54
2022/09/25 03:26:51;;;;;;;8.75;1.70;;;27.80;91.90;;;;;;5062932;28;20309;-54
2022/09/25 03:29:17;;;;;;;10.68;1.85;;;27.80;92.00;;;;;;5063502;28;20094;-59
2022/09/25 03:31:44;;;;;;;10.60;2.10;;;27.80;92.00;;;;;;5062994;28;20033;-56
2022/09/25 03:34:12;;;;;;;8.95;1.90;;;27.80;92.00;;;;;;5063013;28;20021;-57
2022/09/25 03:36:39;;;;;;;4.97;1.67;;;27.80;92.00;;;;;;5066593;28;20032;-52
2022/09/25 03:39:09;;;;;;;5.70;1.50;;;27.80;92.00;;;;;;5067169;28;20021;-56
2022/09/25 03:41:36;;;;;;;9.93;1.75;;;27.70;91.90;;;;;;5066772;28;20053;-55
2022/09/25 03:44:04;;;;;;;4.85;1.30;;;27.70;91.90;;;;;;5067169;28;20032;-53
2022/09/25 03:46:33;;;;;;;10.63;1.67;;;27.70;92.00;;;;;;5066815;28;20023;-53
2022/09/25 03:49:01;;;;;;;31.58;3.05;;;27.70;91.90;;;;;;5065396;28;20037;-52
2022/09/25 03:51:29;;;;;;;19.63;2.00;;;27.70;92.00;;;;;;5066680;28;20095;-53
2022/09/25 03:53:56;;;;;;;9.25;1.80;;;27.70;92.00;;;;;;5066761;28;20075;-54
2022/09/25 03:56:26;;;;;;;5.90;1.73;;;27.70;92.20;;;;;;5066509;28;20024;-52
2022/09/25 03:58:53;;;;;;;25.50;2.83;;;27.70;92.00;;;;;;5066605;28;20082;-52
2022/09/25 04:01:21;;;;;;;25.50;3.03;;;27.70;92.00;;;;;;5066597;28;20044;-52
2022/09/25 04:03:48;;;;;;;8.32;1.88;;;27.70;92.00;;;;;;5066393;28;20029;-52
2022/09/25 04:06:18;;;;;;;6.60;1.92;;;27.70;92.00;;;;;;5066437;28;20035;-59
2022/09/25 04:08:46;;;;;;;11.60;1.85;;;27.70;92.10;;;;;;5066434;28;20194;-61
2022/09/25 04:11:14;;;;;;;6.18;1.60;;;27.60;92.10;;;;;;5066308;28;20033;-54
2022/09/25 04:13:42;;;;;;;5.88;1.60;;;27.60;92.10;;;;;;5065155;28;20312;-53
2022/09/25 04:16:09;;;;;;;6.38;1.90;;;27.60;92.20;;;;;;5066382;28;20096;-53
2022/09/25 04:18:36;;;;;;;3.95;1.83;;;27.60;92.30;;;;;;5066250;28;20033;-53
2022/09/25 04:21:05;;;;;;;6.90;1.80;;;27.60;92.30;;;;;;5066128;28;20028;-53
2022/09/25 04:23:32;;;;;;;6.75;2.00;;;27.60;92.20;;;;;;5065979;28;20029;-56
2022/09/25 04:25:59;;;;;;;9.40;2.00;;;27.60;92.30;;;;;;5066251;28;20021;-53
2022/09/25 04:28:26;;;;;;;6.45;2.10;;;27.60;92.40;;;;;;5066085;28;20032;-57
2022/09/25 04:30:52;;;;;;;8.27;2.30;;;27.50;92.40;;;;;;5066085;28;20045;-54
2022/09/25 04:36:05;;;;;;;14.15;2.20;;;27.50;92.40;;;;;;5065989;28;20336;-52
2022/09/25 04:38:31;;;;;;;11.27;1.67;;;27.50;92.40;;;;;;5065573;28;20021;-55
2022/09/25 04:40:59;;;;;;;8.63;1.67;;;27.50;92.30;;;;;;5065870;28;20087;-53
2022/09/25 04:43:30;;;;;;;10.18;1.77;;;27.50;92.30;;;;;;5064716;28;20260;-53
2022/09/25 04:46:02;;;;;;;17.90;1.67;;;27.50;92.30;;;;;;5065759;28;20336;-54
2022/09/25 04:48:29;;;;;;;;;;;27.50;92.40;;;;;;5064810;28;20056;-52
2022/09/25 04:50:57;;;;;;;17.00;2.80;;;27.50;92.40;;;;;;5065467;28;20189;-55
2022/09/25 04:53:26;;;;;;;17.92;3.08;;;27.50;92.40;;;;;;5065690;28;20107;-55
2022/09/25 04:55:54;;;;;;;20.48;3.22;;;27.40;92.30;;;;;;5066024;28;20017;-53
2022/09/25 04:58:20;;;;;;;60.40;5.68;;;27.40;92.30;;;;;;5065453;28;20025;-53
2022/09/25 05:00:48;;;;;;;31.35;3.53;;;27.40;92.30;;;;;;5065903;28;20216;-53
2022/09/25 05:03:15;;;;;;;13.85;2.25;;;27.40;92.40;;;;;;5065409;28;20021;-52
2022/09/25 05:05:42;;;;;;;23.50;2.45;;;27.40;92.40;;;;;;5065733;28;20039;-53
2022/09/25 05:08:10;;;;;;;17.05;2.10;;;27.40;92.50;;;;;;5065510;28;20040;-52
2022/09/25 05:10:40;;;;;;;14.25;1.90;;;27.40;92.50;;;;;;5065583;28;20047;-54
2022/09/25 05:13:10;;;;;;;8.90;1.90;;;27.40;92.60;;;;;;5065013;28;20021;-50
2022/09/25 05:15:36;;;;;;;16.00;1.90;;;27.40;92.50;;;;;;5065602;28;20086;-53
2022/09/25 05:18:06;;;;;;;7.50;1.95;;;27.40;92.50;;;;;;5065098;28;20309;-51
2022/09/25 05:20:34;;;;;;;12.98;1.88;;;27.40;92.60;;;;;;5064842;28;20025;-50
2022/09/25 05:23:03;;;;;;;9.63;1.80;;;27.40;92.60;;;;;;5065146;28;20040;-51
2022/09/25 05:25:30;;;;;;;6.95;1.60;;;27.40;92.70;;;;;;5064055;28;20032;-52
2022/09/25 05:27:59;;;;;;;31.55;2.60;;;27.40;92.60;;;;;;5064744;28;20051;-53
2022/09/25 05:30:30;;;;;;;18.05;2.38;;;27.30;92.60;;;;;;5064928;28;20053;-51
2022/09/25 05:32:57;;;;;;;9.97;2.40;;;27.30;92.70;;;;;;5064929;28;20021;-51
2022/09/25 05:35:25;;;;;;;22.05;2.70;;;27.30;92.70;;;;;;5065197;28;20021;-55
2022/09/25 05:37:51;;;;;;;8.27;2.08;;;27.30;92.70;;;;;;5064766;28;20025;-54
2022/09/25 05:40:22;;;;;;;10.88;2.22;;;27.30;92.70;;;;;;5065088;28;20017;-54
2022/09/25 05:42:50;;;;;;;25.70;2.90;;;27.30;92.70;;;;;;5064625;28;20106;-54
2022/09/25 05:45:19;;;;;;;12.65;2.10;;;27.30;92.80;;;;;;5064926;28;20020;-53
2022/09/25 05:47:46;;;;;;;6.13;1.73;;;27.30;92.80;;;;;;5064728;28;20031;-53
2022/09/25 05:50:15;;;;;;;5.55;1.40;;;27.30;92.80;;;;;;5064884;28;20092;-54
2022/09/25 05:52:41;;;;;;;23.75;2.33;;;27.30;92.80;;;;;;5064420;28;20020;-57
2022/09/25 05:55:09;;;;;;;15.05;1.65;;;27.30;92.80;;;;;;5069623;28;20079;-55
2022/09/25 05:57:37;;;;;;;6.43;1.45;;;27.30;92.80;;;;;;5084365;28;20020;-53
2022/09/25 06:00:08;;;;;;;4.78;1.20;;;27.30;92.80;;;;;;5078368;28;20025;-53
2022/09/25 06:02:35;;;;;;;4.65;1.42;;;27.30;92.80;;;;;;5064088;28;20147;-54
2022/09/25 06:05:01;;;;;;;8.43;1.40;;;27.30;92.80;;;;;;5064213;28;20355;-53
2022/09/25 06:07:28;;;;;;;15.52;1.70;;;27.30;92.80;;;;;;5071124;28;20036;-57
2022/09/25 06:09:54;;;;;;;8.63;1.50;;;27.30;92.80;;;;;;5084416;28;20032;-53
2022/09/25 06:12:23;;;;;;;11.32;1.50;;;27.30;92.80;;;;;;5084127;28;20036;-55
2022/09/25 06:14:51;;;;;;;4.40;1.23;;;27.30;92.80;;;;;;5084594;28;20297;-53
2022/09/25 06:17:18;;;;;;;34.92;2.58;;;27.30;92.70;;;;;;5083999;28;20016;-62
2022/09/25 06:19:45;;;;;;;14.30;1.95;;;27.30;92.80;;;;;;5065887;28;20285;-53
2022/09/25 06:22:11;;;;;;;9.23;1.77;;;27.30;92.80;;;;;;5068407;28;20082;-53
2022/09/25 06:24:38;;;;;;;12.48;1.40;;;27.30;92.70;;;;;;5064073;28;20021;-53
2022/09/25 06:27:06;;;;;;;7.07;1.35;;;27.30;92.80;;;;;;5064000;28;20068;-53
2022/09/25 06:29:33;;;;;;;8.77;1.25;;;27.30;92.70;;;;;;5064128;28;20044;-61
2022/09/25 06:31:59;;;;;;;5.97;1.08;;;27.30;92.70;;;;;;5063582;28;20086;-53
2022/09/25 06:34:27;;;;;;;8.98;1.60;;;27.30;92.70;;;;;;5064078;28;20078;-53
2022/09/25 06:36:54;;;;;;;9.65;1.20;;;27.30;92.80;;;;;;5063817;28;20037;-53
2022/09/25 06:39:20;;;;;;;4.82;1.10;;;27.20;92.70;;;;;;5063984;28;20304;-51
2022/09/25 06:41:47;;;;;;;6.97;1.20;;;27.20;92.80;;;;;;5063819;28;20100;-53
2022/09/25 06:44:13;;;;;;;5.30;1.30;;;27.20;92.80;;;;;;5063837;28;20346;-54
2022/09/25 06:46:43;;;;;;;7.93;1.35;;;27.20;92.80;;;;;;5063631;28;20228;-53
2022/09/25 06:49:12;;;;;;;8.65;1.60;;;27.20;92.80;;;;;;5063775;28;20028;-52
2022/09/25 06:51:39;;;;;;;6.95;1.10;;;27.20;92.80;;;;;;5063606;28;20040;-54
2022/09/25 06:54:05;;;;;;;6.07;1.15;;;27.20;92.80;;;;;;5063779;28;20021;-53
2022/09/25 06:56:32;;;;;;;5.55;1.13;;;27.20;92.80;;;;;;5063783;28;20029;-55
2022/09/25 06:58:58;;;;;;;4.10;1.40;;;27.20;92.90;;;;;;5063850;28;20021;-55
2022/09/25 07:01:25;;;;;;;7.25;1.20;;;27.20;92.90;;;;;;5070847;28;20033;-55
2022/09/25 07:03:51;;;;;;;8.50;1.40;;;27.20;92.90;;;;;;5083710;28;20058;-55
2022/09/25 07:06:21;;;;;;;27.60;1.55;;;27.20;92.90;;;;;;5083768;28;20328;-55
2022/09/25 07:08:49;;;;;;;6.15;1.40;;;27.20;92.90;;;;;;5083488;28;20032;-57
2022/09/25 07:11:24;;;;;;;10.68;1.40;;;27.20;92.90;;;;;;5086526;28;20055;-54
2022/09/25 07:13:53;;;;;;;7.30;1.70;;;27.20;92.90;;;;;;5087539;28;20020;-60
2022/09/25 07:16:22;;;;;;;4.80;1.33;;;27.20;92.90;;;;;;5087368;28;20021;-54
2022/09/25 07:18:50;;;;;;;7.90;1.80;;;27.20;93.00;;;;;;5087458;28;20103;-53
2022/09/25 07:21:18;;;;;;;7.43;1.90;;;27.20;93.00;;;;;;5087335;28;20028;-52
2022/09/25 07:23:49;;;;;;;5.70;1.30;;;27.10;92.90;;;;;;5087224;28;20106;-53
2022/09/25 07:26:21;;;;;;;11.07;1.52;;;27.20;92.90;;;;;;5087236;28;20089;-53
2022/09/25 07:29:09;;;;;;;7.38;1.40;;;27.10;92.90;;;;;;5087101;28;20031;-51
2022/09/25 07:31:36;;;;;;;5.40;1.70;;;27.10;92.90;;;;;;5086841;28;20056;-53
2022/09/25 07:34:07;;;;;;;8.00;1.52;;;27.20;93.00;;;;;;5087076;28;20237;-50
2022/09/25 07:36:38;;;;;;;6.33;1.77;;;27.10;93.00;;;;;;5087116;28;20078;-55
2022/09/25 07:39:06;;;;;;;6.82;2.00;;;27.10;93.00;;;;;;5087141;28;20024;-53
2022/09/25 07:41:33;;;;;;;5.57;1.75;;;27.10;93.10;;;;;;5087175;28;20036;-58
2022/09/25 07:44:00;;;;;;;7.22;1.90;;;27.10;93.10;;;;;;5087202;28;20024;-53
2022/09/25 07:46:30;;;;;;;6.85;1.75;;;27.10;93.10;;;;;;5086914;28;20032;-54
2022/09/25 07:48:56;;;;;;;7.40;1.50;;;27.10;93.20;;;;;;5086779;28;20055;-55
2022/09/25 07:51:25;;;;;;;6.43;1.90;;;27.10;93.20;;;;;;5086794;28;20099;-54
2022/09/25 07:53:51;;;;;;;5.05;1.88;;;27.00;93.20;;;;;;5087069;28;20020;-53
2022/09/25 07:56:19;;;;;;;7.60;1.70;;;27.10;93.20;;;;;;5086698;28;20111;-59
2022/09/25 07:58:46;;;;;;;4.28;1.67;;;27.10;93.20;;;;;;5086692;28;20075;-51
2022/09/25 08:01:13;;;;;;;5.38;1.60;;;27.10;93.20;;;;;;5086633;28;20033;-52
2022/09/25 08:03:39;;;;;;;7.05;1.70;;;27.10;93.20;;;;;;5086465;28;20336;-57
2022/09/25 08:06:10;;;;;;;9.68;1.85;;;27.10;93.10;;;;;;5086891;28;20107;-51
2022/09/25 08:08:38;;;;;;;13.55;2.25;;;27.00;93.10;;;;;;5086477;28;20024;-52
2022/09/25 08:11:08;;;;;;;8.43;1.70;;;27.00;93.10;;;;;;5086297;28;20039;-52
2022/09/25 08:13:37;;;;;;;12.15;1.65;;;27.10;93.20;;;;;;5086713;28;20244;-53
2022/09/25 08:16:10;;;;;;;8.93;1.80;;;27.00;93.20;;;;;;5086456;28;20092;-51
2022/09/25 08:18:40;;;;;;;13.60;2.00;;;27.00;93.20;;;;;;5086300;28;20020;-52
2022/09/25 08:21:08;;;;;;;8.90;2.08;;;27.00;93.20;;;;;;5085743;28;20035;-55
2022/09/25 08:23:34;;;;;;;8.20;1.77;;;27.00;93.20;;;;;;5085587;28;20020;-54
2022/09/25 08:26:01;;;;;;;10.02;2.10;;;27.00;93.20;;;;;;5086357;28;20296;-54
2022/09/25 08:28:28;;;;;;;10.38;2.03;;;27.00;93.20;;;;;;5086143;28;20221;-53
2022/09/25 08:30:57;;;;;;;11.88;2.10;;;27.00;93.20;;;;;;5085734;28;20390;-54
2022/09/25 08:33:23;;;;;;;6.90;2.10;;;27.00;93.30;;;;;;5086070;28;20313;-54
2022/09/25 08:35:57;;;;;;;8.73;2.13;;;27.00;93.30;;;;;;5085999;28;20035;-62
2022/09/25 08:38:25;;;;;;;6.60;1.90;;;27.00;93.30;;;;;;5085853;28;20312;-59
2022/09/25 08:41:27;;;;;;;15.05;1.80;;;26.90;93.30;;;;;;5086461;28;20297;-54
2022/09/25 08:44:23;;;;;;;20.77;2.55;;;26.90;93.30;;;;;;5085289;28;20032;-55
2022/09/25 08:50:15;;;;;;;11.88;1.73;;;26.90;93.30;;;;;;5085970;28;20031;-55
2022/09/25 08:52:44;;;;;;;8.23;1.67;;;26.90;93.40;;;;;;5085649;28;20040;-53
2022/09/25 08:58:28;;;;;;;8.40;1.98;;;26.90;93.40;;;;;;5084721;28;20099;-59
2022/09/25 09:01:02;;;;;;;12.43;1.63;;;26.90;93.40;;;;;;5085584;28;20051;-53
2022/09/25 09:03:32;;;;;;;10.38;2.00;;;26.90;93.50;;;;;;5085358;28;20332;-56
2022/09/25 09:06:09;;;;;;;10.63;1.75;;;26.90;93.50;;;;;;5085473;28;20029;-53
2022/09/25 09:08:39;;;;;;;14.38;1.80;;;26.80;93.50;;;;;;5085333;28;20066;-56
2022/09/25 09:11:22;;;;;;;10.57;1.88;;;26.80;93.50;;;;;;5085083;28;20029;-54
2022/09/25 09:13:55;;;;;;;13.20;1.77;;;26.80;93.50;;;;;;5085307;28;20036;-58
2022/09/25 09:16:43;;;;;;;11.23;1.65;;;26.80;93.50;;;;;;5085123;28;20054;-53
2022/09/25 09:19:12;;;;;;;13.48;1.83;;;26.80;93.50;;;;;;5085087;28;20100;-53
2022/09/25 09:21:42;;;;;;;11.73;1.70;;;26.70;93.50;;;;;;5084903;28;20028;-53
2022/09/25 09:24:14;;;;;;;21.63;2.30;;;26.70;93.60;;;;;;5085132;28;20200;-53
2022/09/25 09:27:16;;;;;;;17.48;2.30;;;26.70;93.50;;;;;;5084849;28;20040;-51
2022/09/25 09:30:14;;;;;;;13.52;2.47;;;26.70;93.50;;;;;;5085217;28;20126;-54
2022/09/25 09:32:58;;;;;;;22.88;2.28;;;26.70;93.50;;;;;;5084681;28;20029;-54
2022/09/25 09:35:46;;;;;;;10.55;1.95;;;26.70;93.50;;;;;;5085350;28;20036;-55
2022/09/25 09:38:28;;;;;;;14.75;1.90;;;26.70;93.50;;;;;;5084815;28;20059;-54
2022/09/25 09:41:32;;;;;;;11.32;2.15;;;26.70;93.50;;;;;;5084783;28;20059;-60
2022/09/25 09:44:23;;;;;;;12.27;1.67;;;26.70;93.50;;;;;;5084661;28;20187;-55
2022/09/25 09:47:24;;;;;;;7.60;1.55;;;26.70;93.40;;;;;;5084509;28;20095;-54
2022/09/25 09:50:26;;;;;;;11.77;1.65;;;26.70;93.40;;;;;;5084699;28;20029;-53
2022/09/25 09:53:01;;;;;;;16.25;1.80;;;26.70;93.40;;;;;;5084310;28;20049;-53
2022/09/25 09:55:51;;;;;;;15.80;1.70;;;26.70;93.30;;;;;;5084982;28;20044;-53
2022/09/25 09:58:18;;;;;;;8.75;1.50;;;26.70;93.30;;;;;;5084329;28;20096;-56
2022/09/25 10:00:49;;;;;;;7.30;1.25;;;26.70;93.30;;;;;;5084812;28;20028;-54
2022/09/25 10:03:27;;;;;;;8.63;1.60;;;26.60;93.20;;;;;;5084281;28;20274;-54
2022/09/25 10:06:03;;;;;;;7.10;1.40;;;26.60;93.10;;;;;;5084224;28;20056;-53
2022/09/25 10:08:30;;;;;;;8.77;1.77;;;26.60;93.10;;;;;;5084162;28;20029;-52
2022/09/25 10:10:58;;;;;;;9.60;1.70;;;26.60;93.10;;;;;;5084023;28;20099;-54
2022/09/25 10:13:33;;;;;;;8.75;1.38;;;26.60;93.00;;;;;;5084205;28;20075;-53
2022/09/25 10:16:04;;;;;;;8.10;1.90;;;26.60;93.00;;;;;;5084161;28;20032;-54
2022/09/25 10:18:55;;;;;;;4.35;1.13;;;26.60;92.90;;;;;;5084267;28;20267;-57
2022/09/25 10:21:38;;;;;;;9.98;1.55;;;26.60;92.90;;;;;;5083506;28;20040;-49
2022/09/25 10:24:05;;;;;;;6.82;1.42;;;26.60;92.90;;;;;;5084269;28;20058;-55
2022/09/25 10:26:36;;;;;;;8.35;1.80;;;26.60;92.90;;;;;;5084053;28;20029;-54
2022/09/25 10:29:21;;;;;;;8.32;1.75;;;26.60;92.90;;;;;;5084013;28;20036;-54
2022/09/25 10:31:55;;;;;;;7.88;1.80;;;26.60;92.90;;;;;;5083840;28;20100;-57
2022/09/25 10:34:23;;;;;;;9.88;1.65;;;26.60;92.90;;;;;;5084134;28;20036;-54
2022/09/25 10:36:52;;;;;;;9.38;2.03;;;26.60;92.90;;;;;;5083938;28;20020;-55
2022/09/25 10:39:38;;;;;;;13.82;1.60;;;26.60;93.00;;;;;;5083983;28;20050;-53
2022/09/25 10:42:31;;;;;;;8.23;1.27;;;26.60;93.00;;;;;;5084059;28;20099;-53
2022/09/25 10:44:58;;;;;;;11.27;1.60;;;26.50;93.00;;;;;;5083630;28;20040;-56
2022/09/25 10:50:18;;;;;;;6.82;1.65;;;26.50;93.10;;;;;;5084393;28;20047;-53
2022/09/25 10:52:51;;;;;;;7.97;1.90;;;26.50;93.10;;;;;;5083680;28;20095;-55
2022/09/25 10:55:30;;;;;;;9.30;2.28;;;26.50;93.00;;;;;;5084013;28;20090;-53
2022/09/25 10:58:23;;;;;;;5.40;2.30;;;26.50;93.10;;;;;;5083767;28;20029;-55
2022/09/25 11:00:49;;;;;;;;;;;26.50;93.10;;;;;;5084432;28;20037;-53
2022/09/25 11:03:34;;;;;;;7.82;2.25;;;26.50;93.10;;;;;;5083937;28;20042;-55
2022/09/25 11:06:03;;;;;;;12.00;2.55;;;26.50;93.20;;;;;;5083789;28;20036;-53
2022/09/25 11:08:36;;;;;;;10.63;2.33;;;26.40;93.20;;;;;;5083805;28;20193;-53
2022/09/25 11:11:04;;;;;;;7.88;2.53;;;26.40;93.30;;;;;;5083419;28;20071;-53
2022/09/25 11:13:42;;;;;;;5.88;2.10;;;26.40;93.70;;;;;;5083398;28;20024;-53
2022/09/25 11:16:09;;;;;;;14.65;2.72;;;26.40;93.40;;;;;;5083379;28;20024;-57
2022/09/25 11:18:39;;;;;;;12.63;2.25;;;26.40;93.50;;;;;;5083465;28;20016;-59
2022/09/25 11:21:16;;;;;;;38.10;3.33;;;26.40;93.50;;;;;;5083620;28;20036;-53
2022/09/25 11:23:49;;;;;;;101.05;6.22;;;26.50;93.50;;;;;;5083317;28;20036;-59
2022/09/25 11:26:25;;;;;;;6.45;1.90;;;26.50;93.50;;;;;;5083526;28;20036;-50
2022/09/25 11:29:31;;;;;;;15.82;2.88;;;26.50;93.50;;;;;;5083245;28;20028;-53
2022/09/25 11:32:09;;;;;;;9.82;2.90;;;26.50;93.40;;;;;;5082978;28;20076;-56
2022/09/25 11:34:45;;;;;;;9.52;2.38;;;26.50;93.50;;;;;;5083506;28;20024;-54
2022/09/25 11:37:35;;;;;;;11.80;2.47;;;26.50;93.50;;;;;;5083226;28;20084;-55
2022/09/25 11:43:15;;;;;;;13.35;2.45;;;26.50;93.50;;;;;;5083190;28;20055;-55
2022/09/25 11:45:45;;;;;;;7.20;2.40;;;26.50;93.60;;;;;;5083111;28;20016;-52
2022/09/25 11:48:39;;;;;;;7.85;2.20;;;26.50;93.60;;;;;;5075252;28;20067;-54
2022/09/25 11:51:34;;;;;;;7.80;2.65;;;26.50;93.60;;;;;;5063346;28;20033;-58
2022/09/25 11:54:27;;;;;;;13.48;2.42;;;26.50;93.60;;;;;;5062751;28;20252;-54
2022/09/25 11:57:02;;;;;;;8.32;2.08;;;26.50;93.60;;;;;;5063748;28;20044;-55
2022/09/25 11:59:44;;;;;;;7.45;2.25;;;26.50;93.60;;;;;;5066873;28;20025;-56
2022/09/25 12:02:19;;;;;;;9.98;2.25;;;26.60;93.70;;;;;;5066612;28;20039;-57
2022/09/25 12:04:56;;;;;;;10.75;2.70;;;26.60;93.70;;;;;;5066643;28;20037;-52
2022/09/25 12:07:38;;;;;;;8.70;2.30;;;26.60;93.80;;;;;;5066488;28;20029;-53
2022/09/25 12:10:32;;;;;;;8.20;2.00;;;26.60;93.80;;;;;;5066701;28;20040;-52
2022/09/25 12:13:20;;;;;;;10.18;2.50;;;26.60;93.90;;;;;;5066006;28;20041;-51
2022/09/25 12:16:02;;;;;;;24.20;3.58;;;26.60;93.90;;;;;;5066549;28;20071;-53
2022/09/25 12:18:39;;;;;;;16.50;2.60;;;26.60;94.00;;;;;;5066145;28;20329;-53
2022/09/25 12:21:32;;;;;;;15.68;2.67;;;26.60;94.10;;;;;;5066356;28;20037;-59
2022/09/25 12:24:28;;;;;;;14.48;2.53;;;26.60;94.00;;;;;;5066164;28;20399;-54
2022/09/25 12:27:25;;;;;;;10.50;2.38;;;26.60;94.00;;;;;;5065902;28;20037;-52
2022/09/25 12:30:24;;;;;;;8.35;2.28;;;26.60;94.00;;;;;;5066240;28;20035;-56
2022/09/25 12:33:06;;;;;;;8.75;2.22;;;26.70;94.10;;;;;;5065889;28;20383;-52
2022/09/25 12:35:39;;;;;;;8.95;1.98;;;26.70;94.00;;;;;;5065946;28;20044;-53
2022/09/25 12:38:37;;;;;;;11.85;2.58;;;26.70;94.00;;;;;;5070933;28;20028;-59
2022/09/25 12:41:45;;;;;;;23.60;2.90;;;26.80;94.00;;;;;;5067497;28;20086;-52
2022/09/25 12:44:17;;;;;;;27.92;2.95;;;26.80;94.00;;;;;;5065913;28;20094;-51
2022/09/25 12:47:01;;;;;;;;;;;26.80;94.10;;;;;;5065871;28;20028;-53
2022/09/25 12:49:50;;;;;;;17.77;2.60;;;26.80;94.10;;;;;;5066100;28;20190;-59
2022/09/25 12:52:23;;;;;;;15.13;2.88;;;26.80;94.20;;;;;;5065625;28;20139;-53
2022/09/25 12:55:04;;;;;;;26.65;2.97;;;26.80;94.20;;;;;;5065606;28;20056;-53
2022/09/25 12:57:59;;;;;;;25.38;2.97;;;26.80;94.20;;;;;;5066111;28;20031;-53
2022/09/25 13:00:31;;;;;;;18.88;3.00;;;26.80;94.20;;;;;;5065413;28;20041;-54
2022/09/25 13:03:10;;;;;;;17.70;2.90;;;26.80;94.30;;;;;;5065364;28;20092;-53
2022/09/25 13:05:43;;;;;;;24.38;2.70;;;26.90;94.40;;;;;;5065294;28;20040;-54
2022/09/25 13:08:13;;;;;;;17.20;2.40;;;26.90;94.40;;;;;;5065244;28;20106;-54
2022/09/25 13:11:02;;;;;;;15.20;2.92;;;26.90;94.40;;;;;;5065244;28;20033;-52
2022/09/25 13:13:35;;;;;;;14.18;2.50;;;26.90;94.40;;;;;;5065183;28;20039;-52
2022/09/25 13:16:04;;;;;;;14.02;2.50;;;26.90;94.40;;;;;;5065227;28;20074;-57
2022/09/25 13:18:33;;;;;;;10.40;2.58;;;26.90;94.40;;;;;;5065074;28;20213;-53
2022/09/25 13:21:23;;;;;;;11.57;2.10;;;27.00;94.40;;;;;;5072712;28;20024;-54
2022/09/25 13:23:53;;;;;;;18.85;2.88;;;27.00;94.40;;;;;;5077559;28;20043;-56
2022/09/25 13:26:29;;;;;;;12.75;2.35;;;27.00;94.20;;;;;;5077529;28;20209;-55
2022/09/25 13:29:01;;;;;;;12.10;2.30;;;27.10;94.20;;;;;;5084953;28;20290;-52
2022/09/25 13:31:33;;;;;;;8.32;2.00;;;27.10;94.30;;;;;;5066197;28;20045;-53
2022/09/25 13:34:12;;;;;;;9.90;2.40;;;27.10;94.30;;;;;;5064400;28;20041;-53
2022/09/25 13:36:56;;;;;;;14.90;2.35;;;27.10;94.30;;;;;;5065217;28;20029;-52
2022/09/25 13:42:37;;;;;;;16.65;2.47;;;27.20;94.10;;;;;;5074344;28;20039;-55